Detalii statie SOMALEX GHIMPATI [0000198E]

Toti senzorii

Date Temperatura solului [C]Precipitatii [mm]Voltaj baterie [mV]Leaf Wetness [Min]HC Air temperature [C]HC Relative humidity [%]Punctul de roua [C]
medieminmaxsumaultimatimpmedieminmaxmediemediemin
2017-10-20 09:00:00 13.4 13.4 13.5 0 6982 14.43 14.42 14.44 100 14.4 14.4
2017-10-20 09:10:00 13.6 13.6 13.6 0 6914 14.56 14.47 14.65 100 14.5 14.4
2017-10-20 09:20:00 13.5 13.5 13.5 0 7000 15.12 15.07 15.18 100 15 15
2017-10-20 09:30:00 13.7 13.7 13.7 0 7050 15.49 15.45 15.54 100 15.4 15.4
2017-10-20 09:40:00 13.8 13.8 13.8 0 7070 15.72 15.64 15.81 100 15.7 15.6
2017-10-20 09:50:00 13.8 13.7 13.9 0 7070 16.09 16 16.19 100 16 16
2017-10-20 10:00:00 14 13.9 14.1 0 7080 16.44 16.32 16.56 100 16.4 16.3
2017-10-20 10:10:00 14.1 14 14.2 0 7060 17.06 16.87 17.26 100 17 16.8
2017-10-20 10:20:00 14.3 14.3 14.3 0 7098 17.52 17.38 17.67 100 17.4 17.3
2017-10-20 10:30:00 14.4 14.4 14.4 0 7080 18.2 18.03 18.38 100 18.1 18
2017-10-20 10:40:00 14.4 14.4 14.5 0 7098 18.74 18.73 18.76 100 18.7 18.7
2017-10-20 10:50:00 14.6 14.5 14.8 0 7166 19.03 18.87 19.2 100 19 18.8
2017-10-20 11:00:00 14.8 14.8 14.8 0 7176 19.55 19.51 19.59 100 19.5 19.5
2017-10-20 11:10:00 14.8 14.7 15 0 7098 19.78 19.74 19.82 100 19.7 19.7
2017-10-20 11:20:00 15 14.9 15.1 0 7108 19.94 19.82 20.06 100 19.9 19.8
2017-10-20 11:30:00 15.2 15.2 15.3 0 7088 20.32 20.15 20.49 100 20.2 20.1
2017-10-20 11:40:00 15.5 15.5 15.6 0 7088 20.66 20.54 20.79 100 20.6 20.5
2017-10-20 11:50:00 15.7 15.7 15.8 0 7088 21.14 21.11 21.18 100 21.1 21.1
2017-10-20 12:00:00 16.1 16 16.2 0 7118 21.72 21.59 21.86 100 21.6 21.5
2017-10-20 12:10:00 16.2 16.1 16.4 0 7108 22.48 22.3 22.66 100 22.4 22.3
2017-10-20 12:20:00 16.4 16.3 16.5 0 7098 22.85 22.62 23.09 100 22.8 22.6
2017-10-20 12:30:00 16.7 16.6 16.8 0 7070 22.66 22.43 22.9 100 22.6 22.4
2017-10-20 12:40:00 16.9 16.9 17 0 7080 23.05 22.8 23.31 100 23 22.8
2017-10-20 12:50:00 17.2 17.1 17.3 0 7080 23.58 23.52 23.65 100 23.5 23.5
2017-10-20 13:00:00 17.3 17.2 17.5 0 7246 23.9 23.72 24.08 100 23.8 23.7
2017-10-20 13:10:00 17.5 17.5 17.6 0 7010 23.9 23.86 23.95 100 23.8 23.8
2017-10-20 13:20:00 17.8 17.7 17.9 0 7040 23.73 23.56 23.9 100 23.7 23.5
2017-10-20 13:30:00 17.9 17.8 18 0 7040 23.29 22.77 23.82 100 23.2 22.7
2017-10-20 13:40:00 18 18 18.1 0 7040 22.26 22.2 22.33 100 22.2 22.2
2017-10-20 13:50:00 18.1 18.1 18.2 0 7020 22.06 22.02 22.1 100 22 22
2017-10-20 14:00:00 18.1 18.1 18.2 0 7040 21.91 21.91 21.92 100 21.9 21.9
2017-10-20 14:10:00 18.1 18.1 18.2 0 6952 22.18 22.17 22.19 100 22.1 22.1
2017-10-20 14:20:00 18.1 18.1 18.2 0 6982 22.06 22.04 22.08 100 22 22
2017-10-20 14:30:00 18.1 18.1 18.1 0 6972 22.13 22.04 22.22 100 22.1 22
2017-10-20 14:40:00 18 18 18 0 6982 22.1 22.1 22.11 100 22.1 22.1
2017-10-20 14:50:00 17.9 17.9 18 0 6982 22.07 22.05 22.1 100 22 22
2017-10-20 15:00:00 18 18 18.1 0 6992 21.97 21.92 22.03 100 21.9 21.9
2017-10-20 15:10:00 17.9 17.9 17.9 0 6914 21.79 21.79 21.8 100 21.7 21.7
2017-10-20 15:20:00 17.9 17.9 17.9 0 6932 21.81 21.73 21.9 100 21.8 21.7
2017-10-20 15:30:00 17.7 17.7 17.7 0 6932 21.52 21.45 21.6 100 21.5 21.4
2017-10-20 15:40:00 17.8 17.8 17.9 0 6942 21.16 21.07 21.26 100 21.1 21
2017-10-20 15:50:00 17.6 17.6 17.7 0 6932 21.1 21.06 21.15 100 21 21
2017-10-20 16:00:00 17.7 17.6 17.8 0 6942 20.76 20.59 20.94 100 20.7 20.5
2017-10-20 16:10:00 17.5 17.4 17.7 0 6894 20.35 20.3 20.4 100 20.3 20.3
2017-10-20 16:20:00 17.6 17.6 17.6 0 6914 19.99 19.86 20.13 100 19.9 19.8
2017-10-20 16:30:00 17.5 17.5 17.5 0 6904 19.58 19.53 19.64 100 19.5 19.5
2017-10-20 16:40:00 17.5 17.5 17.5 0 6914 19.25 19.16 19.35 100 19.2 19.1
2017-10-20 16:50:00 17.4 17.4 17.4 0 6894 19.06 19.05 19.07 100 19 19